Portada
METAR-TAF:

METAR-TAF

Aeroports :

Surgut, Rússia

latitud: 61-15N, longitud: 073-30E, altitud: 44 m

Observació

L'informe es va fer fa 27 minuts, a les 09:00 UTC
Vent 8 kt del Sud/Sud-Oest
Temperatura 2°C
Humitat 80%
Pressió 1016 hPa
Visibilitat 10 km o més
sense núvols per sota de 1500 mi sense presència de cumulonimbus.

METAR: USRR 310900Z 20004MPS CAVOK 02/M01 Q1016 R25/290055 NOSIG RMK QFE756

Hora: 14:27 (09:27 UTC)

Pronòstic

L'informe es va fer fa 4 hores i 32 minuts, a les 04:55 UTC
Pronòstic vàlid del 31 a les 06 UTC al 01 a les 06 UTC
Vent 14 kt del Sud-Oest amb ràfegues de 27 kt
Visibilitat 10 km o més
Núvols disperses a una alçada de 1000 ft
Cel ennuvolat a una alçada de 2000 ft, Cumulonimbus.
Temporalment
l' 31 a les 06 UTC al 31 a les 12 UTC
Cel ennuvolat a una alçada de 700 ft
Cel ennuvolat a una alçada de 1500 ft, Cumulonimbus.

TAF: USRR 310455Z 3106/0106 22007G14MPS 9999 SCT010 BKN020CB TEMPO 3106/3112 BKN007 BKN015CB

Observacions i pronòstics meteorològics de més de 4000 aeroports (METAR i TAF).

Les estacions disponibles són els punts grocs i vermells al mapa.

Posi el ratolí al punt desitjat per veure el nom de l'estació.

Feu clic per veure les observacions i els pronòstics meteorològics.

Per canviar el mapa: feu clic els botons verds amb una creu de color negre per apropar; al botó verd amb un guió per allunyar la imatge; o en les fletxes verdes per a mapes adjacents.


METAR-TAF: